createdAt,value
2019-05-25T00:00:35.583Z,101819.16
2019-05-25T00:03:24.661Z,101826.27
2019-05-25T00:06:15.955Z,101823.29
2019-05-25T00:09:06.282Z,101824.33
2019-05-25T00:11:55.837Z,101826.23
2019-05-25T00:14:44.313Z,101823.63
2019-05-25T00:17:35.231Z,101826.50
2019-05-25T00:20:25.109Z,101827.63
2019-05-25T00:23:14.484Z,101825.11
2019-05-25T00:26:03.487Z,101828.39
2019-05-25T00:28:54.628Z,101822.29
2019-05-25T00:31:43.652Z,101824.67
2019-05-25T00:34:32.873Z,101832.05
2019-05-25T00:37:21.043Z,101823.25
2019-05-25T00:40:10.418Z,101828.41
2019-05-25T00:42:58.999Z,101824.55
2019-05-25T00:45:48.418Z,101834.07
2019-05-25T00:48:37.955Z,101834.25
2019-05-25T00:51:27.922Z,101833.08
2019-05-25T00:54:27.372Z,101838.16
2019-05-25T00:57:09.808Z,101833.88
2019-05-25T00:59:59.798Z,101836.34
2019-05-25T01:02:56.877Z,101837.37
2019-05-25T01:05:44.998Z,101835.75
2019-05-25T01:08:33.442Z,101837.73
2019-05-25T01:11:21.266Z,101844.23
2019-05-25T01:14:09.938Z,101840.85
2019-05-25T01:16:58.369Z,101839.64
2019-05-25T01:19:46.212Z,101843.40
2019-05-25T01:22:35.316Z,101841.34
2019-05-25T01:25:24.115Z,101836.53
2019-05-25T01:28:13.707Z,101841.59
2019-05-25T01:31:02.446Z,101838.58
2019-05-25T01:33:51.479Z,101842.30
2019-05-25T01:36:39.967Z,101847.45
2019-05-25T01:39:28.280Z,101840.89
2019-05-25T01:42:16.089Z,101845.88
2019-05-25T01:45:04.213Z,101851.91
2019-05-25T01:47:52.828Z,101849.38
2019-05-25T01:50:41.644Z,101851.44
2019-05-25T01:53:32.223Z,101853.34
2019-05-25T01:56:22.517Z,101852.54
2019-05-25T01:59:10.588Z,101853.52
2019-05-25T02:01:59.344Z,101852.22
2019-05-25T02:04:47.959Z,101858.58
2019-05-25T02:07:38.194Z,101856.42
2019-05-25T02:10:26.586Z,101852.47
2019-05-25T02:13:15.289Z,101854.38
2019-05-25T02:16:04.390Z,101858.02
2019-05-25T02:18:53.469Z,101851.86
2019-05-25T02:21:42.411Z,101849.16
2019-05-25T02:24:31.239Z,101848.84
2019-05-25T02:27:19.639Z,101849.46
2019-05-25T02:30:07.879Z,101843.76
2019-05-25T02:32:56.789Z,101848.36
2019-05-25T02:35:45.392Z,101854.28
2019-05-25T02:38:33.573Z,101849.11
2019-05-25T02:41:22.314Z,101847.92
2019-05-25T02:44:13.284Z,101846.74
2019-05-25T02:47:01.525Z,101849.02
2019-05-25T02:49:50.563Z,101848.78
2019-05-25T02:52:40.991Z,101839.08
2019-05-25T02:55:34.506Z,101832.03
2019-05-25T02:58:19.867Z,101837.48
2019-05-25T03:01:08.702Z,101843.88
2019-05-25T03:03:57.287Z,101844.13
2019-05-25T03:06:48.354Z,101846.89
2019-05-25T03:09:37.063Z,101841.64
2019-05-25T03:12:26.241Z,101855.08
2019-05-25T03:15:15.592Z,101853.89
2019-05-25T03:18:04.539Z,101859.34
2019-05-25T03:20:52.955Z,101862.52
2019-05-25T03:23:42.047Z,101860.77
2019-05-25T03:26:30.854Z,101862.11
2019-05-25T03:29:19.899Z,101861.70
2019-05-25T03:32:08.894Z,101854.13
2019-05-25T03:34:57.770Z,101859.02
2019-05-25T03:37:46.354Z,101855.55
2019-05-25T03:40:34.610Z,101861.25
2019-05-25T03:43:23.453Z,101858.94
2019-05-25T03:46:12.562Z,101856.25
2019-05-25T03:49:01.066Z,101856.17
2019-05-25T03:51:49.628Z,101855.72
2019-05-25T03:54:37.955Z,101850.27
2019-05-25T03:57:26.646Z,101856.98
2019-05-25T04:00:15.977Z,101857.84
2019-05-25T04:03:04.846Z,101859.67
2019-05-25T04:05:53.621Z,101858.25
2019-05-25T04:08:41.623Z,101859.59
2019-05-25T04:11:29.932Z,101867.17
2019-05-25T04:14:18.600Z,101867.98
2019-05-25T04:17:07.408Z,101871.08
2019-05-25T04:19:56.582Z,101866.16
2019-05-25T04:22:45.200Z,101864.73
2019-05-25T04:25:33.844Z,101872.27
2019-05-25T04:28:23.090Z,101877.56
2019-05-25T04:31:11.761Z,101873.05
2019-05-25T04:34:00.609Z,101873.86
2019-05-25T04:36:49.808Z,101876.47
2019-05-25T04:39:39.224Z,101880.42
2019-05-25T04:42:27.796Z,101880.27
2019-05-25T04:45:16.287Z,101887.77
2019-05-25T04:48:04.530Z,101887.23
2019-05-25T04:50:53.335Z,101893.80
2019-05-25T04:53:41.688Z,101895.47
2019-05-25T04:56:39.614Z,101893.11
2019-05-25T04:59:21.728Z,101887.65
2019-05-25T05:02:10.113Z,101889.31
2019-05-25T05:04:59.195Z,101898.03
2019-05-25T05:07:47.182Z,101896.94
2019-05-25T05:10:38.040Z,101891.88
2019-05-25T05:13:26.865Z,101894.81
2019-05-25T05:16:15.377Z,101892.91
2019-05-25T05:19:04.113Z,101896.69
2019-05-25T05:21:53.198Z,101897.91
2019-05-25T05:24:43.841Z,101895.99
2019-05-25T05:27:32.760Z,101893.55
2019-05-25T05:30:31.018Z,101900.91
2019-05-25T05:33:19.789Z,101903.03
2019-05-25T05:36:09.703Z,101896.95
2019-05-25T05:38:59.342Z,101894.18
2019-05-25T05:41:48.443Z,101907.39
2019-05-25T05:44:37.059Z,101907.70
2019-05-25T05:47:27.412Z,101907.05
2019-05-25T05:50:19.304Z,101907.86
2019-05-25T05:53:07.764Z,101914.50
2019-05-25T05:55:55.770Z,101921.06
2019-05-25T05:58:43.658Z,101915.20
2019-05-25T06:01:32.518Z,101919.07
2019-05-25T06:04:22.068Z,101920.36
2019-05-25T06:07:10.949Z,101919.88
2019-05-25T06:09:59.603Z,101919.70
2019-05-25T06:12:48.168Z,101926.27
2019-05-25T06:15:37.219Z,101923.98
2019-05-25T06:18:26.369Z,101924.38
2019-05-25T06:21:15.300Z,101932.83
2019-05-25T06:24:03.848Z,101937.19
2019-05-25T06:26:52.735Z,101930.78
2019-05-25T06:29:41.606Z,101940.03
2019-05-25T06:32:30.196Z,101939.49
2019-05-25T06:35:18.669Z,101941.07
2019-05-25T06:38:07.471Z,101940.02
2019-05-25T06:40:55.996Z,101945.17
2019-05-25T06:43:44.126Z,101947.70
2019-05-25T06:46:32.503Z,101950.62
2019-05-25T06:49:21.162Z,101945.92
2019-05-25T06:52:10.111Z,101952.03
2019-05-25T06:54:59.920Z,101951.37
2019-05-25T06:57:48.498Z,101947.13
2019-05-25T07:00:37.726Z,101946.47
2019-05-25T07:03:26.422Z,101947.55
2019-05-25T07:06:18.249Z,101945.48
2019-05-25T07:09:07.790Z,101945.31
2019-05-25T07:11:56.854Z,101940.55
2019-05-25T07:14:44.954Z,101946.44
2019-05-25T07:17:34.130Z,101945.23
2019-05-25T07:20:22.679Z,101948.37
2019-05-25T07:23:11.448Z,101938.97
2019-05-25T07:26:00.049Z,101950.02
2019-05-25T07:28:48.879Z,101947.39
2019-05-25T07:31:36.661Z,101956.73
2019-05-25T07:34:25.781Z,101963.69
2019-05-25T07:37:14.753Z,101950.04
2019-05-25T07:40:03.568Z,101959.52
2019-05-25T07:42:51.858Z,101958.87
2019-05-25T07:45:40.438Z,101960.23
2019-05-25T07:48:28.968Z,101964.85
2019-05-25T07:51:19.634Z,101964.66
2019-05-25T07:54:11.046Z,101961.89
2019-05-25T07:57:02.453Z,101972.50
2019-05-25T07:59:51.504Z,101972.80
2019-05-25T08:02:40.581Z,101973.86
2019-05-25T08:05:29.449Z,101977.62
2019-05-25T08:08:18.256Z,101979.92
2019-05-25T08:11:06.805Z,101982.63
2019-05-25T08:13:58.088Z,101983.25
2019-05-25T08:16:47.732Z,101987.29
2019-05-25T08:19:37.164Z,101996.53
2019-05-25T08:22:27.652Z,101990.31
2019-05-25T08:25:16.354Z,101989.67
2019-05-25T08:28:04.509Z,101994.36
2019-05-25T08:30:53.413Z,101997.98
2019-05-25T08:33:41.850Z,101992.59
2019-05-25T08:36:30.976Z,101999.37
2019-05-25T08:39:21.777Z,102006.33
2019-05-25T08:42:11.497Z,102004.34
2019-05-25T08:45:03.708Z,101999.56
2019-05-25T08:47:56.631Z,102000.46
2019-05-25T08:50:45.184Z,102007.15
2019-05-25T08:53:41.526Z,102007.20
2019-05-25T08:56:24.624Z,102003.97
2019-05-25T08:59:13.081Z,102007.45
2019-05-25T09:02:01.812Z,102008.70
2019-05-25T09:04:50.853Z,102015.12
2019-05-25T09:07:39.793Z,102009.56
2019-05-25T09:10:28.333Z,102014.11
2019-05-25T09:13:16.998Z,102004.27
2019-05-25T09:16:05.721Z,102009.67
2019-05-25T09:18:55.016Z,102012.85
2019-05-25T09:21:59.501Z,102009.01
2019-05-25T09:24:36.609Z,102012.35
2019-05-25T09:27:25.136Z,102009.87
2019-05-25T09:30:13.163Z,102017.59
2019-05-25T09:33:01.639Z,102011.30
2019-05-25T09:35:50.321Z,102011.02
2019-05-25T09:38:38.069Z,102024.39
2019-05-25T09:41:25.849Z,102014.08
2019-05-25T09:44:14.143Z,102011.62
2019-05-25T09:47:02.195Z,102017.85
2019-05-25T09:49:50.417Z,102012.52
2019-05-25T09:52:39.013Z,102015.27
2019-05-25T09:55:27.476Z,102011.25
2019-05-25T09:58:15.340Z,102005.94
2019-05-25T10:01:03.847Z,102002.98
2019-05-25T10:03:52.506Z,101996.16
2019-05-25T10:06:41.277Z,101999.59
2019-05-25T10:09:29.696Z,101995.72
2019-05-25T10:12:18.643Z,102001.27
2019-05-25T10:15:07.512Z,101989.50
2019-05-25T10:17:56.059Z,101989.50
2019-05-25T10:20:44.521Z,101982.16
2019-05-25T10:23:33.272Z,101987.00
2019-05-25T10:26:23.113Z,101985.40
2019-05-25T10:29:13.554Z,101990.33
2019-05-25T10:32:02.098Z,101983.31
2019-05-25T10:34:50.160Z,101977.08
2019-05-25T10:37:38.410Z,101977.50
2019-05-25T10:40:26.802Z,101973.24
2019-05-25T10:43:15.555Z,101978.92
2019-05-25T10:46:03.697Z,101974.62
2019-05-25T10:48:52.954Z,101972.89
2019-05-25T10:51:41.253Z,101972.89
2019-05-25T10:54:29.961Z,101975.56
2019-05-25T10:57:18.087Z,101975.58
2019-05-25T11:00:06.761Z,101973.69
2019-05-25T11:02:56.139Z,101968.89
2019-05-25T11:05:44.531Z,101969.07
2019-05-25T11:08:33.839Z,101964.93
2019-05-25T11:11:22.454Z,101960.45
2019-05-25T11:14:11.015Z,101954.80
2019-05-25T11:16:59.745Z,101956.52
2019-05-25T11:19:48.072Z,101953.52
2019-05-25T11:22:36.743Z,101957.91
2019-05-25T11:25:25.086Z,101955.58
2019-05-25T11:28:14.005Z,101956.00
2019-05-25T11:31:03.090Z,101956.76
2019-05-25T11:33:52.116Z,101959.37
2019-05-25T11:36:40.795Z,101964.25
2019-05-25T11:39:29.590Z,101966.52
2019-05-25T11:42:18.920Z,101970.13
2019-05-25T11:45:09.168Z,101973.79
2019-05-25T11:47:58.012Z,101968.28
2019-05-25T11:50:45.840Z,101964.34
2019-05-25T11:53:34.087Z,101957.30
2019-05-25T11:56:22.781Z,101966.58
2019-05-25T11:59:11.918Z,101971.76
2019-05-25T12:02:00.144Z,101965.19
2019-05-25T12:04:48.606Z,101963.45
2019-05-25T12:07:37.112Z,101961.88
2019-05-25T12:10:26.054Z,101960.84
2019-05-25T12:13:14.575Z,101959.77
2019-05-25T12:16:03.504Z,101954.26
2019-05-25T12:18:52.407Z,101951.96
2019-05-25T12:21:41.173Z,101961.58
2019-05-25T12:24:29.597Z,101968.94
2019-05-25T12:27:18.165Z,101960.28
2019-05-25T12:30:06.332Z,101965.28
2019-05-25T12:32:55.418Z,101963.16
2019-05-25T12:35:45.252Z,101966.56
2019-05-25T12:38:39.390Z,101964.83
2019-05-25T12:41:27.908Z,101963.21
2019-05-25T12:44:16.814Z,101969.34
2019-05-25T12:47:04.939Z,101964.30
2019-05-25T12:49:53.268Z,101966.47
2019-05-25T12:52:41.964Z,101972.28
2019-05-25T12:55:30.312Z,101959.80
2019-05-25T12:58:19.390Z,101966.04
2019-05-25T13:01:08.537Z,101965.38
2019-05-25T13:03:59.368Z,101964.53
2019-05-25T13:06:48.564Z,101965.63
2019-05-25T13:09:37.296Z,101960.16
2019-05-25T13:12:25.968Z,101949.82
2019-05-25T13:15:14.928Z,101962.39
2019-05-25T13:18:03.739Z,101952.73
2019-05-25T13:20:52.619Z,101955.21
2019-05-25T13:23:41.082Z,101952.45
2019-05-25T13:26:29.251Z,101951.97
2019-05-25T13:29:19.463Z,101951.73
2019-05-25T13:32:07.755Z,101947.61
2019-05-25T13:34:56.577Z,101942.30
2019-05-25T13:37:46.046Z,101937.84
2019-05-25T13:40:35.278Z,101933.05
2019-05-25T13:43:23.483Z,101935.27
2019-05-25T13:46:12.399Z,101934.42
2019-05-25T13:49:00.927Z,101932.33
2019-05-25T13:51:49.621Z,101928.89
2019-05-25T13:54:43.044Z,101926.61
2019-05-25T13:57:32.231Z,101918.66
2019-05-25T14:00:20.663Z,101926.93
2019-05-25T14:03:09.474Z,101916.94
2019-05-25T14:06:01.060Z,101921.09
2019-05-25T14:08:50.143Z,101918.39
2019-05-25T14:11:38.893Z,101920.50
2019-05-25T14:14:30.529Z,101915.39
2019-05-25T14:17:20.626Z,101921.66
2019-05-25T14:20:09.041Z,101917.56
2019-05-25T14:22:57.555Z,101914.69
2019-05-25T14:25:46.661Z,101915.25
2019-05-25T14:28:35.458Z,101920.79
2019-05-25T14:31:25.034Z,101923.06
2019-05-25T14:34:13.834Z,101927.53
2019-05-25T14:37:02.624Z,101930.48
2019-05-25T14:39:52.819Z,101930.28
2019-05-25T14:42:41.083Z,101931.44
2019-05-25T14:45:29.564Z,101936.74
2019-05-25T14:48:17.488Z,101935.13
2019-05-25T14:51:06.338Z,101942.11
2019-05-25T14:53:55.225Z,101945.45
2019-05-25T14:56:44.021Z,101948.32
2019-05-25T14:59:35.411Z,101948.59
2019-05-25T15:02:23.967Z,101938.94
2019-05-25T15:05:13.191Z,101928.62
2019-05-25T15:08:02.313Z,101921.05
2019-05-25T15:10:51.364Z,101924.64
2019-05-25T15:13:39.950Z,101920.95
2019-05-25T15:16:28.268Z,101915.60
2019-05-25T15:19:17.137Z,101917.40
2019-05-25T15:22:06.269Z,101909.14
2019-05-25T15:24:54.421Z,101912.17
2019-05-25T15:27:43.217Z,101913.27
2019-05-25T15:30:31.463Z,101907.19
2019-05-25T15:33:20.299Z,101904.66
2019-05-25T15:36:09.028Z,101904.89
2019-05-25T15:39:08.302Z,101895.89
2019-05-25T15:41:57.362Z,101900.23
2019-05-25T15:44:46.281Z,101899.58
2019-05-25T15:47:35.660Z,101899.25
2019-05-25T15:50:25.424Z,101898.22
2019-05-25T15:53:14.380Z,101888.31
2019-05-25T15:56:03.378Z,101885.78
2019-05-25T15:58:52.231Z,101880.08
2019-05-25T16:01:40.058Z,101883.45
2019-05-25T16:04:28.741Z,101881.56
2019-05-25T16:07:18.640Z,101884.03
2019-05-25T16:10:07.287Z,101882.04
2019-05-25T16:12:59.035Z,101877.14
2019-05-25T16:15:48.155Z,101879.72
2019-05-25T16:18:36.385Z,101882.30
2019-05-25T16:21:24.224Z,101884.00
2019-05-25T16:24:12.421Z,101892.42
2019-05-25T16:27:00.561Z,101887.67
2019-05-25T16:29:48.928Z,101879.16
2019-05-25T16:33:07.118Z,101883.95
2019-05-25T16:35:26.744Z,101881.89
2019-05-25T16:38:14.942Z,101884.48
2019-05-25T16:41:03.911Z,101875.09
2019-05-25T16:43:52.288Z,101879.44
2019-05-25T16:46:40.627Z,101878.04
2019-05-25T16:49:29.519Z,101881.13
2019-05-25T16:52:17.337Z,101869.62
2019-05-25T16:55:06.567Z,101864.95
2019-05-25T16:57:54.530Z,101862.98
2019-05-25T17:00:42.803Z,101865.30
2019-05-25T17:03:31.206Z,101862.97
2019-05-25T17:06:19.390Z,101867.59
2019-05-25T17:09:08.011Z,101876.63
2019-05-25T17:11:56.939Z,101881.16
2019-05-25T17:14:45.427Z,101877.81
2019-05-25T17:17:33.658Z,101872.20
2019-05-25T17:20:21.944Z,101874.48
2019-05-25T17:23:11.225Z,101878.45
2019-05-25T17:25:59.637Z,101878.06
2019-05-25T17:28:48.209Z,101884.94
2019-05-25T17:31:37.087Z,101883.72
2019-05-25T17:34:26.130Z,101885.06
2019-05-25T17:37:14.957Z,101881.61
2019-05-25T17:40:03.868Z,101884.80
2019-05-25T17:42:52.616Z,101879.95
2019-05-25T17:45:41.294Z,101879.59
2019-05-25T17:48:30.676Z,101876.33
2019-05-25T17:51:20.758Z,101871.16
2019-05-25T17:54:09.968Z,101879.11
2019-05-25T17:56:58.826Z,101873.94
2019-05-25T17:59:47.749Z,101877.17
2019-05-25T18:02:37.154Z,101871.84
2019-05-25T18:05:26.206Z,101870.59
2019-05-25T18:08:15.321Z,101875.53
2019-05-25T18:11:04.630Z,101867.83
2019-05-25T18:13:52.913Z,101873.59
2019-05-25T18:16:41.803Z,101871.48
2019-05-25T18:19:32.628Z,101870.08
2019-05-25T18:22:21.227Z,101866.94
2019-05-25T18:25:09.685Z,101871.50
2019-05-25T18:27:58.593Z,101876.52
2019-05-25T18:30:46.760Z,101864.85
2019-05-25T18:33:35.740Z,101859.20
2019-05-25T18:36:25.107Z,101864.55
2019-05-25T18:39:14.474Z,101868.10
2019-05-25T18:42:03.044Z,101855.91
2019-05-25T18:44:54.659Z,101855.83
2019-05-25T18:47:43.091Z,101861.71
2019-05-25T18:50:31.951Z,101855.94
2019-05-25T18:53:21.443Z,101860.45
2019-05-25T18:56:10.289Z,101855.01
2019-05-25T18:58:58.418Z,101847.39
2019-05-25T19:01:50.108Z,101846.27
2019-05-25T19:04:46.281Z,101850.76
2019-05-25T19:07:29.962Z,101850.43
2019-05-25T19:10:18.892Z,101844.50
2019-05-25T19:13:11.616Z,101848.97
2019-05-25T19:16:00.326Z,101846.13
2019-05-25T19:18:50.775Z,101843.89
2019-05-25T19:21:39.206Z,101841.77
2019-05-25T19:24:27.960Z,101854.75
2019-05-25T19:27:17.235Z,101863.23
2019-05-25T19:30:06.567Z,101854.47
2019-05-25T19:32:56.309Z,101860.61
2019-05-25T19:35:45.650Z,101862.33
2019-05-25T19:38:37.298Z,101862.67
2019-05-25T19:41:26.694Z,101859.64
2019-05-25T19:44:16.020Z,101863.08
2019-05-25T19:47:04.494Z,101866.22
2019-05-25T19:49:53.676Z,101867.91
2019-05-25T19:52:43.226Z,101864.05
2019-05-25T19:55:32.694Z,101875.22
2019-05-25T19:58:22.317Z,101874.06
2019-05-25T20:01:12.276Z,101877.45
2019-05-25T20:04:05.820Z,101878.99
2019-05-25T20:06:58.151Z,101878.80
2019-05-25T20:09:47.517Z,101880.69
2019-05-25T20:12:38.530Z,101874.18
2019-05-25T20:15:27.774Z,101872.15
2019-05-25T20:18:16.381Z,101874.06
2019-05-25T20:21:04.911Z,101874.20
2019-05-25T20:23:53.390Z,101869.95
2019-05-25T20:26:41.536Z,101877.64
2019-05-25T20:29:30.662Z,101879.16
2019-05-25T20:32:18.850Z,101875.73
2019-05-25T20:35:06.992Z,101871.21
2019-05-25T20:37:55.608Z,101872.69
2019-05-25T20:40:44.256Z,101871.02
2019-05-25T20:43:36.650Z,101868.33
2019-05-25T20:46:25.559Z,101872.92
2019-05-25T20:49:14.169Z,101866.19
2019-05-25T20:52:02.195Z,101874.34
2019-05-25T20:54:51.868Z,101871.17
2019-05-25T20:57:41.442Z,101869.86
2019-05-25T21:00:38.192Z,101863.02
2019-05-25T21:03:26.124Z,101862.58
2019-05-25T21:06:14.997Z,101865.20
2019-05-25T21:09:05.141Z,101861.53
2019-05-25T21:11:56.024Z,101860.59
2019-05-25T21:14:45.288Z,101865.42
2019-05-25T21:17:35.364Z,101864.09
2019-05-25T21:20:24.582Z,101856.86
2019-05-25T21:23:14.656Z,101860.44
2019-05-25T21:26:07.021Z,101863.51
2019-05-25T21:28:58.812Z,101856.66
2019-05-25T21:31:55.725Z,101858.42
2019-05-25T21:34:44.817Z,101853.81
2019-05-25T21:37:33.397Z,101852.27
2019-05-25T21:40:22.267Z,101852.53
2019-05-25T21:43:10.880Z,101852.44
2019-05-25T21:45:59.314Z,101846.87
2019-05-25T21:48:49.349Z,101846.28
2019-05-25T21:51:39.522Z,101851.48
2019-05-25T21:54:29.533Z,101844.63
2019-05-25T22:07:10.563Z,101850.78
2019-05-25T22:10:00.431Z,101845.27
2019-05-25T22:31:48.876Z,101838.94
2019-05-25T22:34:40.935Z,101833.33
2019-05-25T22:37:31.412Z,101829.48
2019-05-25T22:40:21.185Z,101829.27
2019-05-25T22:43:09.970Z,101828.02
2019-05-25T22:46:01.667Z,101818.76
2019-05-25T22:48:49.945Z,101812.48
2019-05-25T22:51:39.190Z,101808.22
2019-05-25T22:54:29.196Z,101806.87
2019-05-25T22:57:18.759Z,101808.02
2019-05-25T23:00:15.473Z,101809.09
2019-05-25T23:03:05.228Z,101803.48
2019-05-25T23:05:54.627Z,101794.61
2019-05-25T23:08:43.837Z,101794.30
2019-05-25T23:11:34.477Z,101787.38
2019-05-25T23:14:23.404Z,101786.68
2019-05-25T23:17:12.167Z,101777.83
2019-05-25T23:20:02.688Z,101771.73
2019-05-25T23:22:52.820Z,101768.73
2019-05-25T23:25:42.575Z,101761.32
2019-05-25T23:28:31.632Z,101764.20
2019-05-25T23:31:20.737Z,101754.06
2019-05-25T23:34:10.065Z,101764.55
2019-05-25T23:37:13.645Z,101754.44
2019-05-25T23:39:49.684Z,101743.44
2019-05-25T23:42:39.207Z,101739.09
2019-05-25T23:45:27.452Z,101726.36
2019-05-25T23:48:16.765Z,101739.92
2019-05-25T23:51:04.928Z,101739.34
2019-05-25T23:53:53.934Z,101743.98
2019-05-25T23:56:42.786Z,101739.64
2019-05-25T23:59:31.888Z,101745.30
